sensor_id;sensor_type;location;lat;lon;timestamp;P1;durP1;ratioP1;P2;durP2;ratioP2
22103;SDS011;11218;48.886;9.426;2022-07-11T00:01:14;136.68;;;93.57;;
22103;SDS011;11218;48.886;9.426;2022-07-11T00:03:42;156.25;;;99.68;;
22103;SDS011;11218;48.886;9.426;2022-07-11T00:06:11;127.60;;;89.68;;
22103;SDS011;11218;48.886;9.426;2022-07-11T00:08:39;128.70;;;88.63;;
22103;SDS011;11218;48.886;9.426;2022-07-11T00:11:09;134.15;;;92.95;;
22103;SDS011;11218;48.886;9.426;2022-07-11T00:13:38;117.68;;;86.07;;
22103;SDS011;11218;48.886;9.426;2022-07-11T00:16:09;116.18;;;85.43;;
22103;SDS011;11218;48.886;9.426;2022-07-11T00:18:38;121.75;;;86.45;;
22103;SDS011;11218;48.886;9.426;2022-07-11T00:21:06;116.78;;;87.82;;
22103;SDS011;11218;48.886;9.426;2022-07-11T00:23:35;127.10;;;89.75;;
22103;SDS011;11218;48.886;9.426;2022-07-11T00:26:03;116.00;;;85.13;;
22103;SDS011;11218;48.886;9.426;2022-07-11T00:31:02;101.07;;;78.57;;
22103;SDS011;11218;48.886;9.426;2022-07-11T00:33:30;109.50;;;80.95;;
22103;SDS011;11218;48.886;9.426;2022-07-11T00:35:58;103.10;;;78.88;;
22103;SDS011;11218;48.886;9.426;2022-07-11T00:38:26;109.93;;;83.68;;
22103;SDS011;11218;48.886;9.426;2022-07-11T00:40:54;103.72;;;78.90;;
22103;SDS011;11218;48.886;9.426;2022-07-11T00:43:29;119.63;;;83.80;;
22103;SDS011;11218;48.886;9.426;2022-07-11T00:45:59;88.65;;;72.63;;
22103;SDS011;11218;48.886;9.426;2022-07-11T00:48:28;101.35;;;76.45;;
22103;SDS011;11218;48.886;9.426;2022-07-11T00:50:56;101.63;;;77.03;;
22103;SDS011;11218;48.886;9.426;2022-07-11T00:53:25;93.80;;;72.85;;
22103;SDS011;11218;48.886;9.426;2022-07-11T00:55:53;92.40;;;72.03;;
22103;SDS011;11218;48.886;9.426;2022-07-11T00:58:23;109.30;;;79.78;;
22103;SDS011;11218;48.886;9.426;2022-07-11T01:00:52;103.50;;;77.43;;
22103;SDS011;11218;48.886;9.426;2022-07-11T01:03:22;109.30;;;78.78;;
22103;SDS011;11218;48.886;9.426;2022-07-11T01:05:49;101.88;;;76.38;;
22103;SDS011;11218;48.886;9.426;2022-07-11T01:08:18;102.28;;;74.60;;
22103;SDS011;11218;48.886;9.426;2022-07-11T01:10:46;103.90;;;76.88;;
22103;SDS011;11218;48.886;9.426;2022-07-11T01:13:14;96.85;;;74.35;;
22103;SDS011;11218;48.886;9.426;2022-07-11T01:15:42;93.10;;;70.53;;
22103;SDS011;11218;48.886;9.426;2022-07-11T01:18:10;94.35;;;73.97;;
22103;SDS011;11218;48.886;9.426;2022-07-11T01:20:40;93.57;;;71.68;;
22103;SDS011;11218;48.886;9.426;2022-07-11T01:23:10;98.97;;;69.80;;
22103;SDS011;11218;48.886;9.426;2022-07-11T01:25:38;84.38;;;66.85;;
22103;SDS011;11218;48.886;9.426;2022-07-11T01:28:06;90.18;;;71.68;;
22103;SDS011;11218;48.886;9.426;2022-07-11T01:30:34;85.72;;;66.38;;
22103;SDS011;11218;48.886;9.426;2022-07-11T01:33:02;80.65;;;66.35;;
22103;SDS011;11218;48.886;9.426;2022-07-11T01:35:30;95.72;;;71.50;;
22103;SDS011;11218;48.886;9.426;2022-07-11T01:37:58;83.15;;;68.28;;
22103;SDS011;11218;48.886;9.426;2022-07-11T01:40:30;91.30;;;71.63;;
22103;SDS011;11218;48.886;9.426;2022-07-11T01:42:58;92.55;;;70.40;;
22103;SDS011;11218;48.886;9.426;2022-07-11T01:45:27;92.65;;;72.28;;
22103;SDS011;11218;48.886;9.426;2022-07-11T01:47:55;99.32;;;72.05;;
22103;SDS011;11218;48.886;9.426;2022-07-11T01:50:23;87.55;;;67.30;;
22103;SDS011;11218;48.886;9.426;2022-07-11T01:52:51;106.72;;;75.15;;
22103;SDS011;11218;48.886;9.426;2022-07-11T01:55:19;97.47;;;71.93;;
22103;SDS011;11218;48.886;9.426;2022-07-11T01:57:48;91.68;;;71.00;;
22103;SDS011;11218;48.886;9.426;2022-07-11T02:00:16;104.75;;;72.88;;
22103;SDS011;11218;48.886;9.426;2022-07-11T02:02:44;91.28;;;71.53;;
22103;SDS011;11218;48.886;9.426;2022-07-11T02:05:13;90.57;;;69.30;;
22103;SDS011;11218;48.886;9.426;2022-07-11T02:07:41;102.13;;;73.07;;
22103;SDS011;11218;48.886;9.426;2022-07-11T02:10:26;91.88;;;69.20;;
22103;SDS011;11218;48.886;9.426;2022-07-11T02:12:57;99.97;;;75.00;;
22103;SDS011;11218;48.886;9.426;2022-07-11T02:15:26;105.47;;;78.03;;
22103;SDS011;11218;48.886;9.426;2022-07-11T02:17:54;94.97;;;71.13;;
22103;SDS011;11218;48.886;9.426;2022-07-11T02:20:23;93.80;;;71.13;;
22103;SDS011;11218;48.886;9.426;2022-07-11T02:22:52;93.50;;;69.18;;
22103;SDS011;11218;48.886;9.426;2022-07-11T02:25:20;96.78;;;68.72;;
22103;SDS011;11218;48.886;9.426;2022-07-11T02:27:49;82.22;;;64.63;;
22103;SDS011;11218;48.886;9.426;2022-07-11T02:30:18;102.65;;;75.38;;
22103;SDS011;11218;48.886;9.426;2022-07-11T02:32:47;88.70;;;71.78;;
22103;SDS011;11218;48.886;9.426;2022-07-11T02:35:16;93.88;;;71.82;;
22103;SDS011;11218;48.886;9.426;2022-07-11T02:37:46;95.40;;;73.55;;
22103;SDS011;11218;48.886;9.426;2022-07-11T02:40:15;111.15;;;79.45;;
22103;SDS011;11218;48.886;9.426;2022-07-11T02:42:43;89.53;;;69.95;;
22103;SDS011;11218;48.886;9.426;2022-07-11T02:45:12;105.85;;;77.85;;
22103;SDS011;11218;48.886;9.426;2022-07-11T02:47:41;101.30;;;76.35;;
22103;SDS011;11218;48.886;9.426;2022-07-11T02:50:10;127.93;;;83.88;;
22103;SDS011;11218;48.886;9.426;2022-07-11T02:52:39;107.75;;;77.88;;
22103;SDS011;11218;48.886;9.426;2022-07-11T02:55:08;100.60;;;76.45;;
22103;SDS011;11218;48.886;9.426;2022-07-11T02:57:37;104.82;;;80.15;;
22103;SDS011;11218;48.886;9.426;2022-07-11T03:00:06;102.65;;;74.80;;
22103;SDS011;11218;48.886;9.426;2022-07-11T03:02:36;103.32;;;77.70;;
22103;SDS011;11218;48.886;9.426;2022-07-11T03:05:06;120.18;;;84.10;;
22103;SDS011;11218;48.886;9.426;2022-07-11T03:07:35;102.05;;;75.88;;
22103;SDS011;11218;48.886;9.426;2022-07-11T03:10:03;103.22;;;78.75;;
22103;SDS011;11218;48.886;9.426;2022-07-11T03:12:31;105.13;;;78.13;;
22103;SDS011;11218;48.886;9.426;2022-07-11T03:14:59;99.07;;;77.38;;
22103;SDS011;11218;48.886;9.426;2022-07-11T03:17:28;121.47;;;84.40;;
22103;SDS011;11218;48.886;9.426;2022-07-11T03:19:56;113.40;;;80.35;;
22103;SDS011;11218;48.886;9.426;2022-07-11T03:22:25;107.18;;;78.47;;
22103;SDS011;11218;48.886;9.426;2022-07-11T03:24:54;102.70;;;75.88;;
22103;SDS011;11218;48.886;9.426;2022-07-11T03:27:22;107.93;;;77.55;;
22103;SDS011;11218;48.886;9.426;2022-07-11T03:29:51;122.47;;;85.85;;
22103;SDS011;11218;48.886;9.426;2022-07-11T03:32:19;115.57;;;82.90;;
22103;SDS011;11218;48.886;9.426;2022-07-11T03:34:54;114.97;;;82.65;;
22103;SDS011;11218;48.886;9.426;2022-07-11T03:37:42;115.32;;;82.03;;
22103;SDS011;11218;48.886;9.426;2022-07-11T03:40:10;116.13;;;80.90;;
22103;SDS011;11218;48.886;9.426;2022-07-11T03:42:38;121.05;;;84.28;;
22103;SDS011;11218;48.886;9.426;2022-07-11T03:45:07;105.55;;;76.80;;
22103;SDS011;11218;48.886;9.426;2022-07-11T03:47:35;96.88;;;74.22;;
22103;SDS011;11218;48.886;9.426;2022-07-11T03:50:05;89.65;;;69.28;;
22103;SDS011;11218;48.886;9.426;2022-07-11T03:52:34;100.50;;;76.20;;
22103;SDS011;11218;48.886;9.426;2022-07-11T03:55:06;93.97;;;72.38;;
22103;SDS011;11218;48.886;9.426;2022-07-11T03:57:35;103.15;;;72.60;;
22103;SDS011;11218;48.886;9.426;2022-07-11T04:00:03;105.40;;;76.20;;
22103;SDS011;11218;48.886;9.426;2022-07-11T04:02:32;106.10;;;75.78;;
22103;SDS011;11218;48.886;9.426;2022-07-11T04:05:01;99.15;;;73.78;;
22103;SDS011;11218;48.886;9.426;2022-07-11T04:07:29;109.93;;;78.57;;
22103;SDS011;11218;48.886;9.426;2022-07-11T04:09:58;95.20;;;72.80;;
22103;SDS011;11218;48.886;9.426;2022-07-11T04:12:28;111.35;;;77.07;;
22103;SDS011;11218;48.886;9.426;2022-07-11T04:14:56;94.30;;;72.22;;
22103;SDS011;11218;48.886;9.426;2022-07-11T04:17:24;84.05;;;66.60;;
22103;SDS011;11218;48.886;9.426;2022-07-11T04:19:54;107.05;;;76.97;;
22103;SDS011;11218;48.886;9.426;2022-07-11T04:22:23;89.25;;;68.20;;
22103;SDS011;11218;48.886;9.426;2022-07-11T04:24:51;89.97;;;68.10;;
22103;SDS011;11218;48.886;9.426;2022-07-11T04:27:19;86.28;;;68.30;;
22103;SDS011;11218;48.886;9.426;2022-07-11T04:29:54;98.55;;;74.15;;
22103;SDS011;11218;48.886;9.426;2022-07-11T04:32:22;93.18;;;69.13;;
22103;SDS011;11218;48.886;9.426;2022-07-11T04:34:50;91.32;;;68.78;;
22103;SDS011;11218;48.886;9.426;2022-07-11T04:37:19;107.10;;;77.90;;
22103;SDS011;11218;48.886;9.426;2022-07-11T04:39:47;115.07;;;83.13;;
22103;SDS011;11218;48.886;9.426;2022-07-11T04:42:15;105.35;;;79.53;;
22103;SDS011;11218;48.886;9.426;2022-07-11T04:44:43;99.82;;;74.25;;
22103;SDS011;11218;48.886;9.426;2022-07-11T04:47:13;110.03;;;73.70;;
22103;SDS011;11218;48.886;9.426;2022-07-11T04:49:41;259.13;;;124.65;;
22103;SDS011;11218;48.886;9.426;2022-07-11T04:52:13;140.50;;;91.70;;
22103;SDS011;11218;48.886;9.426;2022-07-11T04:54:41;174.35;;;102.47;;
22103;SDS011;11218;48.886;9.426;2022-07-11T04:57:09;160.70;;;97.70;;
22103;SDS011;11218;48.886;9.426;2022-07-11T04:59:37;412.70;;;159.75;;
22103;SDS011;11218;48.886;9.426;2022-07-11T05:02:06;218.55;;;116.00;;
22103;SDS011;11218;48.886;9.426;2022-07-11T05:04:37;375.35;;;148.32;;
22103;SDS011;11218;48.886;9.426;2022-07-11T05:07:05;380.42;;;150.82;;
22103;SDS011;11218;48.886;9.426;2022-07-11T05:09:33;420.25;;;159.55;;
22103;SDS011;11218;48.886;9.426;2022-07-11T05:12:01;212.55;;;116.95;;
22103;SDS011;11218;48.886;9.426;2022-07-11T05:14:30;417.42;;;160.25;;
22103;SDS011;11218;48.886;9.426;2022-07-11T05:16:58;357.90;;;149.02;;
22103;SDS011;11218;48.886;9.426;2022-07-11T05:19:26;307.45;;;137.77;;
22103;SDS011;11218;48.886;9.426;2022-07-11T05:21:55;303.30;;;139.35;;
22103;SDS011;11218;48.886;9.426;2022-07-11T05:24:23;400.15;;;158.20;;
22103;SDS011;11218;48.886;9.426;2022-07-11T05:26:51;328.27;;;143.30;;
22103;SDS011;11218;48.886;9.426;2022-07-11T05:29:19;314.27;;;140.38;;
22103;SDS011;11218;48.886;9.426;2022-07-11T05:31:47;278.73;;;133.07;;
22103;SDS011;11218;48.886;9.426;2022-07-11T05:34:19;239.43;;;122.72;;
22103;SDS011;11218;48.886;9.426;2022-07-11T05:36:47;208.73;;;118.25;;
22103;SDS011;11218;48.886;9.426;2022-07-11T05:39:19;256.80;;;126.95;;
22103;SDS011;11218;48.886;9.426;2022-07-11T05:41:47;264.50;;;127.82;;
22103;SDS011;11218;48.886;9.426;2022-07-11T05:44:18;289.52;;;135.23;;
22103;SDS011;11218;48.886;9.426;2022-07-11T05:46:57;241.77;;;123.35;;
22103;SDS011;11218;48.886;9.426;2022-07-11T05:49:27;244.25;;;124.00;;
22103;SDS011;11218;48.886;9.426;2022-07-11T05:51:55;157.48;;;100.40;;
22103;SDS011;11218;48.886;9.426;2022-07-11T05:54:24;164.15;;;99.40;;
22103;SDS011;11218;48.886;9.426;2022-07-11T05:56:53;157.32;;;98.50;;
22103;SDS011;11218;48.886;9.426;2022-07-11T05:59:24;203.13;;;112.80;;
22103;SDS011;11218;48.886;9.426;2022-07-11T06:01:52;169.07;;;104.93;;
22103;SDS011;11218;48.886;9.426;2022-07-11T06:04:20;227.55;;;121.15;;
22103;SDS011;11218;48.886;9.426;2022-07-11T06:06:49;278.58;;;132.20;;
22103;SDS011;11218;48.886;9.426;2022-07-11T06:09:17;101.70;;;73.20;;
22103;SDS011;11218;48.886;9.426;2022-07-11T06:11:45;248.95;;;128.05;;
22103;SDS011;11218;48.886;9.426;2022-07-11T06:14:13;259.23;;;129.43;;
22103;SDS011;11218;48.886;9.426;2022-07-11T06:16:42;383.55;;;154.40;;
22103;SDS011;11218;48.886;9.426;2022-07-11T06:19:11;188.70;;;110.20;;
22103;SDS011;11218;48.886;9.426;2022-07-11T06:21:40;209.38;;;113.68;;
22103;SDS011;11218;48.886;9.426;2022-07-11T06:24:09;287.95;;;136.73;;
22103;SDS011;11218;48.886;9.426;2022-07-11T06:26:37;279.77;;;134.88;;
22103;SDS011;11218;48.886;9.426;2022-07-11T06:29:06;279.50;;;133.13;;
22103;SDS011;11218;48.886;9.426;2022-07-11T06:31:35;204.65;;;115.15;;
22103;SDS011;11218;48.886;9.426;2022-07-11T06:34:03;193.80;;;112.45;;
22103;SDS011;11218;48.886;9.426;2022-07-11T06:36:31;212.07;;;118.95;;
22103;SDS011;11218;48.886;9.426;2022-07-11T06:38:59;161.18;;;99.20;;
22103;SDS011;11218;48.886;9.426;2022-07-11T06:41:28;236.70;;;123.75;;
22103;SDS011;11218;48.886;9.426;2022-07-11T06:43:56;294.92;;;137.48;;
22103;SDS011;11218;48.886;9.426;2022-07-11T06:46:26;268.45;;;129.27;;
22103;SDS011;11218;48.886;9.426;2022-07-11T06:48:55;253.10;;;126.57;;
22103;SDS011;11218;48.886;9.426;2022-07-11T06:51:23;185.35;;;107.07;;
22103;SDS011;11218;48.886;9.426;2022-07-11T06:53:51;360.92;;;146.85;;
22103;SDS011;11218;48.886;9.426;2022-07-11T06:56:19;346.75;;;150.00;;
22103;SDS011;11218;48.886;9.426;2022-07-11T06:58:48;333.33;;;145.68;;
22103;SDS011;11218;48.886;9.426;2022-07-11T07:01:16;250.48;;;129.77;;
22103;SDS011;11218;48.886;9.426;2022-07-11T07:03:46;239.23;;;125.68;;
22103;SDS011;11218;48.886;9.426;2022-07-11T07:06:15;225.23;;;121.43;;
22103;SDS011;11218;48.886;9.426;2022-07-11T07:08:43;269.25;;;132.88;;
22103;SDS011;11218;48.886;9.426;2022-07-11T07:11:12;262.00;;;130.85;;
22103;SDS011;11218;48.886;9.426;2022-07-11T07:13:40;271.75;;;132.65;;
22103;SDS011;11218;48.886;9.426;2022-07-11T07:16:08;267.75;;;130.48;;
22103;SDS011;11218;48.886;9.426;2022-07-11T07:18:37;303.45;;;141.20;;
22103;SDS011;11218;48.886;9.426;2022-07-11T07:21:10;331.98;;;145.52;;
22103;SDS011;11218;48.886;9.426;2022-07-11T07:23:38;336.83;;;148.38;;
22103;SDS011;11218;48.886;9.426;2022-07-11T07:26:06;321.88;;;147.10;;
22103;SDS011;11218;48.886;9.426;2022-07-11T07:28:35;294.30;;;140.20;;
22103;SDS011;11218;48.886;9.426;2022-07-11T07:31:05;261.98;;;130.23;;
22103;SDS011;11218;48.886;9.426;2022-07-11T07:33:41;313.92;;;144.15;;
22103;SDS011;11218;48.886;9.426;2022-07-11T07:36:13;324.02;;;146.68;;
22103;SDS011;11218;48.886;9.426;2022-07-11T07:38:41;324.02;;;147.50;;
22103;SDS011;11218;48.886;9.426;2022-07-11T07:41:11;341.52;;;153.05;;
22103;SDS011;11218;48.886;9.426;2022-07-11T07:43:39;315.90;;;147.13;;
22103;SDS011;11218;48.886;9.426;2022-07-11T07:46:08;296.83;;;144.38;;
22103;SDS011;11218;48.886;9.426;2022-07-11T07:48:37;281.85;;;140.25;;
22103;SDS011;11218;48.886;9.426;2022-07-11T07:51:05;295.35;;;140.25;;
22103;SDS011;11218;48.886;9.426;2022-07-11T07:53:35;318.13;;;149.45;;
22103;SDS011;11218;48.886;9.426;2022-07-11T07:56:04;312.08;;;144.25;;
22103;SDS011;11218;48.886;9.426;2022-07-11T07:58:32;274.70;;;136.43;;
22103;SDS011;11218;48.886;9.426;2022-07-11T08:01:00;280.48;;;139.40;;
22103;SDS011;11218;48.886;9.426;2022-07-11T08:03:46;282.33;;;139.85;;
22103;SDS011;11218;48.886;9.426;2022-07-11T08:06:14;292.50;;;142.95;;
22103;SDS011;11218;48.886;9.426;2022-07-11T08:08:44;294.55;;;139.95;;
22103;SDS011;11218;48.886;9.426;2022-07-11T08:11:12;304.88;;;143.68;;
22103;SDS011;11218;48.886;9.426;2022-07-11T08:13:56;267.88;;;135.05;;
22103;SDS011;11218;48.886;9.426;2022-07-11T08:16:25;271.75;;;138.00;;
22103;SDS011;11218;48.886;9.426;2022-07-11T08:18:56;251.13;;;131.07;;
22103;SDS011;11218;48.886;9.426;2022-07-11T08:21:24;213.23;;;124.55;;
22103;SDS011;11218;48.886;9.426;2022-07-11T08:23:54;237.77;;;129.23;;
22103;SDS011;11218;48.886;9.426;2022-07-11T08:26:22;226.65;;;126.97;;
22103;SDS011;11218;48.886;9.426;2022-07-11T08:28:58;227.18;;;127.57;;
22103;SDS011;11218;48.886;9.426;2022-07-11T08:31:26;208.05;;;124.60;;
22103;SDS011;11218;48.886;9.426;2022-07-11T08:33:54;221.77;;;129.13;;
22103;SDS011;11218;48.886;9.426;2022-07-11T08:36:24;249.18;;;133.15;;
22103;SDS011;11218;48.886;9.426;2022-07-11T08:38:56;266.65;;;139.10;;
22103;SDS011;11218;48.886;9.426;2022-07-11T08:41:24;258.63;;;137.57;;
22103;SDS011;11218;48.886;9.426;2022-07-11T08:43:52;245.48;;;138.25;;
22103;SDS011;11218;48.886;9.426;2022-07-11T08:46:21;218.00;;;125.22;;
22103;SDS011;11218;48.886;9.426;2022-07-11T08:48:51;255.88;;;139.02;;
22103;SDS011;11218;48.886;9.426;2022-07-11T08:51:22;250.95;;;139.93;;
22103;SDS011;11218;48.886;9.426;2022-07-11T08:53:50;226.85;;;131.93;;
22103;SDS011;11218;48.886;9.426;2022-07-11T08:56:20;243.90;;;137.35;;
22103;SDS011;11218;48.886;9.426;2022-07-11T08:58:49;201.25;;;123.88;;
22103;SDS011;11218;48.886;9.426;2022-07-11T09:01:24;225.88;;;132.82;;
22103;SDS011;11218;48.886;9.426;2022-07-11T09:03:57;187.70;;;122.45;;
22103;SDS011;11218;48.886;9.426;2022-07-11T09:06:26;235.85;;;134.30;;
22103;SDS011;11218;48.886;9.426;2022-07-11T09:08:57;231.75;;;132.57;;
22103;SDS011;11218;48.886;9.426;2022-07-11T09:11:28;256.23;;;137.75;;
22103;SDS011;11218;48.886;9.426;2022-07-11T09:14:00;245.00;;;139.65;;
22103;SDS011;11218;48.886;9.426;2022-07-11T09:16:29;207.30;;;128.27;;
22103;SDS011;11218;48.886;9.426;2022-07-11T09:19:06;204.85;;;125.90;;
22103;SDS011;11218;48.886;9.426;2022-07-11T09:21:55;179.27;;;113.55;;
22103;SDS011;11218;48.886;9.426;2022-07-11T09:24:57;175.30;;;116.30;;
22103;SDS011;11218;48.886;9.426;2022-07-11T09:27:46;171.85;;;113.25;;
22103;SDS011;11218;48.886;9.426;2022-07-11T09:30:25;236.15;;;136.73;;
22103;SDS011;11218;48.886;9.426;2022-07-11T09:32:54;209.77;;;125.57;;
22103;SDS011;11218;48.886;9.426;2022-07-11T09:35:27;191.35;;;122.22;;
22103;SDS011;11218;48.886;9.426;2022-07-11T09:37:56;190.20;;;122.78;;
22103;SDS011;11218;48.886;9.426;2022-07-11T09:40:25;153.90;;;108.38;;
22103;SDS011;11218;48.886;9.426;2022-07-11T09:42:54;164.93;;;113.00;;
22103;SDS011;11218;48.886;9.426;2022-07-11T09:45:24;129.65;;;101.28;;
22103;SDS011;11218;48.886;9.426;2022-07-11T09:47:55;141.90;;;102.53;;
22103;SDS011;11218;48.886;9.426;2022-07-11T09:50:29;257.73;;;139.48;;
22103;SDS011;11218;48.886;9.426;2022-07-11T09:52:59;294.92;;;149.52;;
22103;SDS011;11218;48.886;9.426;2022-07-11T09:55:28;301.80;;;150.73;;
22103;SDS011;11218;48.886;9.426;2022-07-11T09:58:18;312.20;;;153.13;;
22103;SDS011;11218;48.886;9.426;2022-07-11T10:00:48;291.25;;;146.18;;
22103;SDS011;11218;48.886;9.426;2022-07-11T10:03:20;279.05;;;144.00;;
22103;SDS011;11218;48.886;9.426;2022-07-11T10:06:08;282.40;;;145.85;;
22103;SDS011;11218;48.886;9.426;2022-07-11T10:08:37;262.48;;;140.25;;
22103;SDS011;11218;48.886;9.426;2022-07-11T10:11:07;259.70;;;142.23;;
22103;SDS011;11218;48.886;9.426;2022-07-11T10:13:39;272.48;;;143.48;;
22103;SDS011;11218;48.886;9.426;2022-07-11T10:16:10;310.25;;;150.57;;
22103;SDS011;11218;48.886;9.426;2022-07-11T10:18:41;323.52;;;156.15;;
22103;SDS011;11218;48.886;9.426;2022-07-11T10:21:17;241.88;;;136.45;;
22103;SDS011;11218;48.886;9.426;2022-07-11T10:24:00;284.33;;;144.57;;
22103;SDS011;11218;48.886;9.426;2022-07-11T10:26:32;260.17;;;138.52;;
22103;SDS011;11218;48.886;9.426;2022-07-11T10:29:07;246.77;;;135.40;;
22103;SDS011;11218;48.886;9.426;2022-07-11T10:31:40;216.45;;;129.43;;
22103;SDS011;11218;48.886;9.426;2022-07-11T10:34:28;191.35;;;123.90;;
22103;SDS011;11218;48.886;9.426;2022-07-11T10:36:59;198.25;;;125.43;;
22103;SDS011;11218;48.886;9.426;2022-07-11T10:39:28;187.82;;;123.78;;
22103;SDS011;11218;48.886;9.426;2022-07-11T10:42:00;202.65;;;127.05;;
22103;SDS011;11218;48.886;9.426;2022-07-11T10:47:30;174.02;;;120.85;;
22103;SDS011;11218;48.886;9.426;2022-07-11T10:50:07;120.05;;;93.75;;
22103;SDS011;11218;48.886;9.426;2022-07-11T10:52:40;87.68;;;72.65;;
22103;SDS011;11218;48.886;9.426;2022-07-11T10:55:16;87.00;;;72.32;;
22103;SDS011;11218;48.886;9.426;2022-07-11T10:57:53;90.70;;;72.18;;
22103;SDS011;11218;48.886;9.426;2022-07-11T11:00:29;67.43;;;60.20;;
22103;SDS011;11218;48.886;9.426;2022-07-11T11:03:04;89.13;;;63.85;;
22103;SDS011;11218;48.886;9.426;2022-07-11T11:05:39;101.32;;;82.05;;
22103;SDS011;11218;48.886;9.426;2022-07-11T11:14:22;77.22;;;68.30;;
22103;SDS011;11218;48.886;9.426;2022-07-11T11:17:33;102.68;;;82.57;;
22103;SDS011;11218;48.886;9.426;2022-07-11T11:20:00;110.03;;;91.57;;
22103;SDS011;11218;48.886;9.426;2022-07-11T11:22:28;104.90;;;86.45;;
22103;SDS011;11218;48.886;9.426;2022-07-11T11:25:01;117.78;;;87.32;;
22103;SDS011;11218;48.886;9.426;2022-07-11T11:28:01;116.68;;;96.30;;
22103;SDS011;11218;48.886;9.426;2022-07-11T11:30:30;120.32;;;96.65;;
22103;SDS011;11218;48.886;9.426;2022-07-11T11:33:00;103.18;;;80.70;;
22103;SDS011;11218;48.886;9.426;2022-07-11T11:35:31;73.93;;;62.40;;
22103;SDS011;11218;48.886;9.426;2022-07-11T11:38:01;147.43;;;111.05;;
22103;SDS011;11218;48.886;9.426;2022-07-11T11:40:29;148.20;;;113.05;;
22103;SDS011;11218;48.886;9.426;2022-07-11T11:42:57;145.80;;;108.40;;
22103;SDS011;11218;48.886;9.426;2022-07-11T11:45:28;132.50;;;104.28;;
22103;SDS011;11218;48.886;9.426;2022-07-11T11:47:56;153.40;;;113.60;;
22103;SDS011;11218;48.886;9.426;2022-07-11T11:50:26;134.80;;;106.18;;
22103;SDS011;11218;48.886;9.426;2022-07-11T11:52:54;158.13;;;115.28;;
22103;SDS011;11218;48.886;9.426;2022-07-11T11:55:34;156.65;;;116.22;;
22103;SDS011;11218;48.886;9.426;2022-07-11T11:58:06;133.65;;;105.55;;
22103;SDS011;11218;48.886;9.426;2022-07-11T12:00:37;153.82;;;114.82;;
22103;SDS011;11218;48.886;9.426;2022-07-11T12:03:25;157.57;;;113.22;;
22103;SDS011;11218;48.886;9.426;2022-07-11T12:05:56;151.43;;;113.78;;
22103;SDS011;11218;48.886;9.426;2022-07-11T12:08:25;152.88;;;111.57;;
22103;SDS011;11218;48.886;9.426;2022-07-11T12:10:54;173.70;;;116.78;;
22103;SDS011;11218;48.886;9.426;2022-07-11T12:13:23;152.88;;;112.85;;
22103;SDS011;11218;48.886;9.426;2022-07-11T12:15:57;147.85;;;111.68;;
22103;SDS011;11218;48.886;9.426;2022-07-11T12:18:42;131.80;;;103.45;;
22103;SDS011;11218;48.886;9.426;2022-07-11T12:21:18;169.32;;;119.50;;
22103;SDS011;11218;48.886;9.426;2022-07-11T12:23:46;147.10;;;112.53;;
22103;SDS011;11218;48.886;9.426;2022-07-11T12:26:17;134.45;;;101.38;;
22103;SDS011;11218;48.886;9.426;2022-07-11T12:29:02;133.02;;;104.38;;
22103;SDS011;11218;48.886;9.426;2022-07-11T12:31:42;155.18;;;114.10;;
22103;SDS011;11218;48.886;9.426;2022-07-11T12:34:11;100.32;;;85.07;;
22103;SDS011;11218;48.886;9.426;2022-07-11T12:36:41;20.38;;;10.43;;
22103;SDS011;11218;48.886;9.426;2022-07-11T12:39:09;30.25;;;20.90;;
22103;SDS011;11218;48.886;9.426;2022-07-11T12:41:37;54.85;;;49.15;;
22103;SDS011;11218;48.886;9.426;2022-07-11T12:44:06;92.38;;;75.95;;
22103;SDS011;11218;48.886;9.426;2022-07-11T12:46:51;80.75;;;69.72;;
22103;SDS011;11218;48.886;9.426;2022-07-11T12:49:20;93.28;;;74.60;;
22103;SDS011;11218;48.886;9.426;2022-07-11T12:51:55;88.90;;;75.50;;
22103;SDS011;11218;48.886;9.426;2022-07-11T12:54:28;86.88;;;76.60;;
22103;SDS011;11218;48.886;9.426;2022-07-11T12:56:56;81.55;;;69.70;;
22103;SDS011;11218;48.886;9.426;2022-07-11T12:59:26;82.68;;;65.43;;
22103;SDS011;11218;48.886;9.426;2022-07-11T13:01:55;68.88;;;57.88;;
22103;SDS011;11218;48.886;9.426;2022-07-11T13:04:28;51.30;;;36.70;;
22103;SDS011;11218;48.886;9.426;2022-07-11T13:06:58;49.95;;;38.05;;
22103;SDS011;11218;48.886;9.426;2022-07-11T13:10:03;42.85;;;34.97;;
22103;SDS011;11218;48.886;9.426;2022-07-11T13:12:33;43.03;;;35.47;;
22103;SDS011;11218;48.886;9.426;2022-07-11T13:15:02;35.38;;;14.80;;
22103;SDS011;11218;48.886;9.426;2022-07-11T13:17:39;27.05;;;13.90;;
22103;SDS011;11218;48.886;9.426;2022-07-11T13:20:09;33.30;;;14.35;;
22103;SDS011;11218;48.886;9.426;2022-07-11T13:22:42;24.92;;;13.52;;
22103;SDS011;11218;48.886;9.426;2022-07-11T13:25:11;32.30;;;17.33;;
22103;SDS011;11218;48.886;9.426;2022-07-11T13:27:40;30.92;;;16.35;;
22103;SDS011;11218;48.886;9.426;2022-07-11T13:30:09;44.22;;;23.55;;
22103;SDS011;11218;48.886;9.426;2022-07-11T13:32:42;31.23;;;19.80;;
22103;SDS011;11218;48.886;9.426;2022-07-11T13:35:11;23.17;;;9.50;;
22103;SDS011;11218;48.886;9.426;2022-07-11T13:37:44;15.25;;;6.55;;
22103;SDS011;11218;48.886;9.426;2022-07-11T13:40:14;33.10;;;11.75;;
22103;SDS011;11218;48.886;9.426;2022-07-11T13:42:43;13.43;;;6.47;;
22103;SDS011;11218;48.886;9.426;2022-07-11T13:45:13;30.23;;;10.57;;
22103;SDS011;11218;48.886;9.426;2022-07-11T13:47:41;23.90;;;10.98;;
22103;SDS011;11218;48.886;9.426;2022-07-11T13:50:09;24.17;;;10.45;;
22103;SDS011;11218;48.886;9.426;2022-07-11T13:52:37;20.38;;;9.93;;
22103;SDS011;11218;48.886;9.426;2022-07-11T13:55:08;36.08;;;13.73;;
22103;SDS011;11218;48.886;9.426;2022-07-11T13:57:37;23.63;;;11.18;;
22103;SDS011;11218;48.886;9.426;2022-07-11T14:00:06;26.88;;;11.73;;
22103;SDS011;11218;48.886;9.426;2022-07-11T14:02:35;22.10;;;9.48;;
22103;SDS011;11218;48.886;9.426;2022-07-11T14:05:03;33.92;;;11.85;;
22103;SDS011;11218;48.886;9.426;2022-07-11T14:07:31;43.25;;;13.27;;
22103;SDS011;11218;48.886;9.426;2022-07-11T14:09:59;29.23;;;10.80;;
22103;SDS011;11218;48.886;9.426;2022-07-11T14:12:29;32.40;;;10.73;;
22103;SDS011;11218;48.886;9.426;2022-07-11T14:14:57;21.90;;;7.43;;
22103;SDS011;11218;48.886;9.426;2022-07-11T14:17:25;26.88;;;7.80;;
22103;SDS011;11218;48.886;9.426;2022-07-11T14:19:54;35.97;;;9.45;;
22103;SDS011;11218;48.886;9.426;2022-07-11T14:22:23;25.58;;;7.18;;
22103;SDS011;11218;48.886;9.426;2022-07-11T14:24:51;24.42;;;7.05;;
22103;SDS011;11218;48.886;9.426;2022-07-11T14:27:19;21.48;;;6.63;;
22103;SDS011;11218;48.886;9.426;2022-07-11T14:29:49;23.23;;;6.70;;
22103;SDS011;11218;48.886;9.426;2022-07-11T14:32:18;27.17;;;9.70;;
22103;SDS011;11218;48.886;9.426;2022-07-11T14:34:47;23.98;;;12.52;;
22103;SDS011;11218;48.886;9.426;2022-07-11T14:37:15;28.17;;;15.30;;
22103;SDS011;11218;48.886;9.426;2022-07-11T14:39:43;48.10;;;20.70;;